createdAt,value
2023-01-30T00:00:57.223Z,2.41
2023-01-30T00:03:25.224Z,2.49
2023-01-30T00:05:52.653Z,2.59
2023-01-30T00:08:20.322Z,2.67
2023-01-30T00:10:48.127Z,2.70
2023-01-30T00:13:16.029Z,2.72
2023-01-30T00:15:43.387Z,2.69
2023-01-30T00:18:10.417Z,2.66
2023-01-30T00:20:37.837Z,2.72
2023-01-30T00:23:05.741Z,2.82
2023-01-30T00:25:33.060Z,2.72
2023-01-30T00:28:01.488Z,2.80
2023-01-30T00:30:30.173Z,2.75
2023-01-30T00:32:59.435Z,2.29
2023-01-30T00:35:28.910Z,2.02
2023-01-30T00:37:58.090Z,1.99
2023-01-30T00:40:26.961Z,2.06
2023-01-30T00:43:13.397Z,2.26
2023-01-30T00:46:02.164Z,2.38
2023-01-30T00:48:29.280Z,2.26
2023-01-30T00:50:56.896Z,2.16
2023-01-30T00:53:24.865Z,2.27
2023-01-30T00:55:52.844Z,2.40
2023-01-30T00:58:21.486Z,2.43
2023-01-30T01:00:49.138Z,2.40
2023-01-30T01:03:16.747Z,2.24
2023-01-30T01:05:44.109Z,2.44
2023-01-30T01:08:14.937Z,2.44
2023-01-30T01:10:42.455Z,2.42
2023-01-30T01:13:10.613Z,2.45
2023-01-30T01:15:37.950Z,2.64
2023-01-30T01:18:06.211Z,2.59
2023-01-30T01:20:33.278Z,2.62
2023-01-30T01:23:00.633Z,2.69
2023-01-30T01:25:28.006Z,2.59
2023-01-30T01:27:55.690Z,2.68
2023-01-30T01:30:22.874Z,2.52
2023-01-30T01:32:49.807Z,2.64
2023-01-30T01:35:17.105Z,2.64
2023-01-30T01:37:44.394Z,2.58
2023-01-30T01:40:36.574Z,2.59
2023-01-30T01:43:15.734Z,2.55
2023-01-30T01:45:43.850Z,2.48
2023-01-30T01:48:35.095Z,2.53
2023-01-30T01:51:11.756Z,2.60
2023-01-30T01:53:54.645Z,2.43
2023-01-30T01:56:22.428Z,2.31
2023-01-30T01:59:02.277Z,2.30
2023-01-30T02:01:30.886Z,2.38
2023-01-30T02:04:02.770Z,2.33
2023-01-30T02:06:31.288Z,2.47
2023-01-30T02:09:05.745Z,2.40
2023-01-30T02:11:45.166Z,2.46
2023-01-30T02:14:14.535Z,2.51
2023-01-30T02:16:44.216Z,2.52
2023-01-30T02:19:35.551Z,2.56
2023-01-30T02:22:15.923Z,2.61
2023-01-30T02:25:17.910Z,2.36
2023-01-30T02:28:13.123Z,2.31
2023-01-30T02:31:01.935Z,2.25
2023-01-30T02:33:41.396Z,2.05
2023-01-30T02:36:09.460Z,1.61
2023-01-30T02:38:46.047Z,1.55
2023-01-30T02:41:28.445Z,1.79
2023-01-30T02:44:05.215Z,1.82
2023-01-30T02:46:55.603Z,1.98
2023-01-30T02:50:01.488Z,1.85
2023-01-30T02:52:31.203Z,1.96
2023-01-30T02:54:58.591Z,2.04
2023-01-30T02:57:26.504Z,2.15
2023-01-30T03:00:02.816Z,2.15
2023-01-30T03:02:45.343Z,2.19
2023-01-30T03:05:37.516Z,2.16
2023-01-30T03:08:30.901Z,2.10
2023-01-30T03:10:58.468Z,2.12
2023-01-30T03:13:44.766Z,2.17
2023-01-30T03:16:40.096Z,2.27
2023-01-30T03:19:12.216Z,2.30
2023-01-30T03:21:44.973Z,2.26
2023-01-30T03:24:13.937Z,2.31
2023-01-30T03:26:47.281Z,2.22
2023-01-30T03:29:14.866Z,2.23
2023-01-30T03:31:42.482Z,2.15
2023-01-30T03:34:09.842Z,2.14
2023-01-30T03:36:37.521Z,2.22
2023-01-30T03:39:04.823Z,2.29
2023-01-30T03:41:32.446Z,2.38
2023-01-30T03:44:01.256Z,2.38
2023-01-30T03:46:28.350Z,2.53
2023-01-30T03:48:55.324Z,2.46
2023-01-30T03:51:22.425Z,2.40
2023-01-30T03:53:49.481Z,2.35
2023-01-30T03:56:17.540Z,2.42
2023-01-30T03:58:44.698Z,2.41
2023-01-30T04:01:21.109Z,2.47
2023-01-30T04:03:48.444Z,2.40
2023-01-30T04:06:16.649Z,2.38
2023-01-30T04:08:44.800Z,2.27
2023-01-30T04:11:22.936Z,2.28
2023-01-30T04:13:49.983Z,2.38
2023-01-30T04:16:20.352Z,2.27
2023-01-30T04:19:16.222Z,2.21
2023-01-30T04:21:43.499Z,2.02
2023-01-30T04:24:10.556Z,2.17
2023-01-30T04:26:37.702Z,1.62
2023-01-30T04:29:05.214Z,1.95
2023-01-30T04:31:33.021Z,2.04
2023-01-30T04:34:06.639Z,2.05
2023-01-30T04:36:35.197Z,1.84
2023-01-30T04:39:02.758Z,2.06
2023-01-30T04:41:31.682Z,2.15
2023-01-30T04:44:01.266Z,2.23
2023-01-30T04:46:50.435Z,2.05
2023-01-30T04:49:17.645Z,2.06
2023-01-30T04:51:45.338Z,1.96
2023-01-30T04:54:12.518Z,2.01
2023-01-30T04:56:40.157Z,2.05
2023-01-30T04:59:07.820Z,1.96
2023-01-30T05:01:40.496Z,2.03
2023-01-30T05:04:08.330Z,2.14
2023-01-30T05:06:36.883Z,2.20
2023-01-30T05:09:04.468Z,2.27
2023-01-30T05:11:32.887Z,2.34
2023-01-30T05:14:00.297Z,2.35
2023-01-30T05:16:33.331Z,2.48
2023-01-30T05:19:00.531Z,2.37
2023-01-30T05:21:28.858Z,2.43
2023-01-30T05:23:57.099Z,2.42
2023-01-30T05:26:25.067Z,2.53
2023-01-30T05:28:54.384Z,2.46
2023-01-30T05:31:21.672Z,2.64
2023-01-30T05:33:50.660Z,2.48
2023-01-30T05:36:20.675Z,2.25
2023-01-30T05:38:47.699Z,1.88
2023-01-30T05:41:17.237Z,1.90
2023-01-30T05:43:45.045Z,2.01
2023-01-30T05:46:14.202Z,1.94
2023-01-30T05:48:41.307Z,1.79
2023-01-30T05:51:16.981Z,2.00
2023-01-30T05:53:44.045Z,1.91
2023-01-30T05:56:11.197Z,2.02
2023-01-30T05:58:38.510Z,1.79
2023-01-30T06:01:09.885Z,1.61
2023-01-30T06:03:37.475Z,1.64
2023-01-30T06:06:06.208Z,1.54
2023-01-30T06:08:33.619Z,1.44
2023-01-30T06:11:08.442Z,1.51
2023-01-30T06:13:36.203Z,1.68
2023-01-30T06:16:03.619Z,1.86
2023-01-30T06:18:30.640Z,1.83
2023-01-30T06:20:57.950Z,1.95
2023-01-30T06:23:26.745Z,1.89
2023-01-30T06:25:54.296Z,1.65
2023-01-30T06:28:22.510Z,1.78
2023-01-30T06:30:49.977Z,1.96
2023-01-30T06:33:18.052Z,1.98
2023-01-30T06:35:45.446Z,2.24
2023-01-30T06:38:14.359Z,2.08
2023-01-30T06:40:44.880Z,1.75
2023-01-30T06:43:12.310Z,1.99
2023-01-30T06:45:39.344Z,2.05
2023-01-30T06:48:06.862Z,2.08
2023-01-30T06:50:34.033Z,2.16
2023-01-30T06:53:06.183Z,2.21
2023-01-30T06:55:35.904Z,2.19
2023-01-30T06:58:11.757Z,2.22
2023-01-30T07:00:41.507Z,2.23
2023-01-30T07:03:14.474Z,1.94
2023-01-30T07:05:43.438Z,2.16
2023-01-30T07:08:11.662Z,2.21
2023-01-30T07:10:39.375Z,2.25
2023-01-30T07:13:06.479Z,2.09
2023-01-30T07:15:34.219Z,2.08
2023-01-30T07:18:01.263Z,2.25
2023-01-30T07:20:30.375Z,2.12
2023-01-30T07:22:58.003Z,2.20
2023-01-30T07:25:27.293Z,2.31
2023-01-30T07:27:59.064Z,2.30
2023-01-30T07:30:28.335Z,2.49
2023-01-30T08:21:07.533Z,2.60
2023-01-30T08:24:07.510Z,2.95
2023-01-30T08:26:34.444Z,3.07
2023-01-30T08:29:01.503Z,3.29
2023-01-30T08:31:28.496Z,3.49
2023-01-30T08:33:55.386Z,3.46
2023-01-30T08:36:22.428Z,3.46
2023-01-30T08:38:49.361Z,3.56
2023-01-30T08:41:16.311Z,3.73
2023-01-30T08:43:43.288Z,3.73
2023-01-30T08:46:10.181Z,3.67
2023-01-30T08:48:49.596Z,3.74
2023-01-30T08:51:17.840Z,3.88
2023-01-30T08:53:44.786Z,3.79
2023-01-30T08:56:11.824Z,3.89
2023-01-30T08:58:38.741Z,3.90
2023-01-30T09:01:07.075Z,3.88
2023-01-30T09:03:34.245Z,4.08
2023-01-30T09:06:01.476Z,4.22
2023-01-30T09:08:28.934Z,4.17
2023-01-30T09:11:04.072Z,4.26
2023-01-30T09:13:32.590Z,4.27
2023-01-30T09:15:59.527Z,4.41
2023-01-30T09:18:26.565Z,4.55
2023-01-30T09:21:02.003Z,4.53
2023-01-30T09:23:28.972Z,4.58
2023-01-30T09:25:55.890Z,4.65
2023-01-30T09:28:23.009Z,4.57
2023-01-30T09:30:50.015Z,4.65
2023-01-30T09:33:20.455Z,4.47
2023-01-30T09:35:50.887Z,4.69
2023-01-30T09:38:18.519Z,4.58
2023-01-30T09:41:00.887Z,4.64
2023-01-30T09:43:33.899Z,4.53
2023-01-30T09:46:09.688Z,4.81
2023-01-30T09:48:50.952Z,4.84
2023-01-30T09:51:33.041Z,4.77
2023-01-30T09:54:22.271Z,4.83
2023-01-30T09:56:56.341Z,4.69
2023-01-30T09:59:30.614Z,4.68
2023-01-30T10:02:23.878Z,4.75
2023-01-30T10:05:01.439Z,4.76
2023-01-30T10:07:30.932Z,4.93
2023-01-30T10:10:12.461Z,5.13
2023-01-30T10:12:45.407Z,5.14
2023-01-30T10:15:15.030Z,5.06
2023-01-30T10:18:11.692Z,5.00
2023-01-30T10:20:48.730Z,5.34
2023-01-30T10:23:41.247Z,5.20
2023-01-30T10:26:15.103Z,5.37
2023-01-30T10:29:15.444Z,5.09
2023-01-30T10:31:51.443Z,5.10
2023-01-30T10:34:25.486Z,5.08
2023-01-30T10:37:09.885Z,5.02
2023-01-30T10:39:54.856Z,5.08
2023-01-30T10:43:08.689Z,4.92
2023-01-30T10:45:57.321Z,5.06
2023-01-30T10:48:58.381Z,4.91
2023-01-30T10:52:08.289Z,4.73
2023-01-30T10:54:48.166Z,4.73
2023-01-30T10:57:15.060Z,4.70
2023-01-30T10:59:50.736Z,4.62
2023-01-30T11:02:59.568Z,4.60
2023-01-30T11:05:50.378Z,4.71
2023-01-30T11:08:22.106Z,4.72
2023-01-30T11:10:50.367Z,4.96
2023-01-30T11:13:20.218Z,4.79
2023-01-30T11:15:50.776Z,4.55
2023-01-30T11:19:16.778Z,4.72
2023-01-30T11:21:18.242Z,4.68
2023-01-30T11:23:45.192Z,4.80
2023-01-30T11:26:29.464Z,4.99
2023-01-30T11:28:59.100Z,5.01
2023-01-30T11:31:40.789Z,5.27
2023-01-30T11:34:22.916Z,5.16
2023-01-30T11:36:50.681Z,5.01
2023-01-30T11:39:21.989Z,5.06
2023-01-30T11:41:58.685Z,5.12
2023-01-30T11:44:31.195Z,5.17
2023-01-30T11:47:04.422Z,4.97
2023-01-30T11:50:07.608Z,4.74
2023-01-30T11:52:47.830Z,4.48
2023-01-30T11:55:20.429Z,4.52
2023-01-30T11:57:57.200Z,4.68
2023-01-30T12:00:47.629Z,4.66
2023-01-30T12:03:18.534Z,4.45
2023-01-30T12:05:47.557Z,4.22
2023-01-30T12:08:27.730Z,4.40
2023-01-30T12:11:03.701Z,4.37
2023-01-30T12:13:37.573Z,4.46
2023-01-30T12:16:22.013Z,4.42
2023-01-30T12:19:10.844Z,4.46
2023-01-30T12:21:37.769Z,4.28
2023-01-30T12:24:22.827Z,4.44
2023-01-30T12:26:58.547Z,4.36
2023-01-30T12:29:36.648Z,4.33
2023-01-30T12:32:15.249Z,4.27
2023-01-30T12:34:45.659Z,4.24
2023-01-30T12:37:36.000Z,4.40
2023-01-30T12:40:29.028Z,4.39
2023-01-30T12:43:28.427Z,4.59
2023-01-30T12:46:18.562Z,4.56
2023-01-30T12:49:11.761Z,4.68
2023-01-30T12:52:06.060Z,4.64
2023-01-30T12:54:46.377Z,4.59
2023-01-30T12:57:24.312Z,4.58
2023-01-30T13:00:28.865Z,4.60
2023-01-30T13:03:22.795Z,4.49
2023-01-30T13:06:09.323Z,4.29
2023-01-30T13:08:39.020Z,4.43
2023-01-30T13:11:41.371Z,4.43
2023-01-30T13:14:24.221Z,4.38
2023-01-30T13:17:24.464Z,4.46
2023-01-30T13:20:10.051Z,4.46
2023-01-30T13:22:58.496Z,4.58
2023-01-30T13:26:07.401Z,4.46
2023-01-30T13:28:46.398Z,3.55
2023-01-30T13:31:18.215Z,2.94
2023-01-30T13:33:51.323Z,3.33
2023-01-30T13:36:22.828Z,3.19
2023-01-30T13:39:00.334Z,3.26
2023-01-30T13:41:39.466Z,3.35
2023-01-30T13:44:22.884Z,3.22
2023-01-30T13:46:52.704Z,3.01
2023-01-30T13:49:28.597Z,2.95
2023-01-30T13:52:20.526Z,3.08
2023-01-30T13:55:18.220Z,3.31
2023-01-30T13:57:56.744Z,3.21
2023-01-30T14:00:33.115Z,3.21
2023-01-30T14:03:03.170Z,3.26
2023-01-30T14:05:52.002Z,2.88
2023-01-30T14:08:21.243Z,2.83
2023-01-30T14:10:49.941Z,2.73
2023-01-30T14:13:17.903Z,2.70
2023-01-30T14:16:04.566Z,2.75
2023-01-30T14:18:36.113Z,2.90
2023-01-30T14:21:21.197Z,2.73
2023-01-30T14:24:05.780Z,2.69
2023-01-30T14:26:47.754Z,2.80
2023-01-30T14:29:41.561Z,2.82
2023-01-30T14:32:19.202Z,2.63
2023-01-30T14:34:48.855Z,2.76
2023-01-30T14:37:43.659Z,2.95
2023-01-30T14:40:22.792Z,3.04
2023-01-30T14:43:35.295Z,3.16
2023-01-30T14:46:08.581Z,3.12
2023-01-30T14:48:57.311Z,3.07
2023-01-30T14:51:34.291Z,2.96
2023-01-30T14:54:13.817Z,2.99
2023-01-30T14:56:54.129Z,2.79
2023-01-30T14:59:39.992Z,2.73
2023-01-30T15:02:13.237Z,2.77
2023-01-30T15:04:45.377Z,2.76
2023-01-30T15:07:21.278Z,2.67
2023-01-30T15:09:57.014Z,2.73
2023-01-30T15:12:45.608Z,2.69
2023-01-30T15:15:43.593Z,2.60
2023-01-30T15:18:41.687Z,2.60
2023-01-30T15:21:58.836Z,2.52
2023-01-30T15:24:46.882Z,2.45
2023-01-30T15:27:49.472Z,2.58
2023-01-30T15:30:57.452Z,2.24
2023-01-30T15:33:31.286Z,2.21
2023-01-30T15:36:00.229Z,2.09
2023-01-30T15:38:27.177Z,1.94
2023-01-30T15:40:55.647Z,1.79
2023-01-30T15:43:51.697Z,2.02
2023-01-30T15:46:38.796Z,2.19
2023-01-30T15:49:40.145Z,1.98
2023-01-30T15:52:14.666Z,1.97
2023-01-30T15:54:48.925Z,2.03
2023-01-30T15:57:31.857Z,2.12
2023-01-30T15:59:59.697Z,2.31
2023-01-30T16:02:35.898Z,2.38
2023-01-30T16:05:16.000Z,2.49
2023-01-30T16:07:44.844Z,2.54
2023-01-30T16:10:16.816Z,2.68
2023-01-30T16:12:44.047Z,2.59
2023-01-30T16:15:29.645Z,2.48
2023-01-30T16:18:17.725Z,2.59
2023-01-30T16:21:00.455Z,2.50
2023-01-30T16:23:31.293Z,2.62
2023-01-30T16:25:59.547Z,2.43
2023-01-30T16:28:28.552Z,2.58
2023-01-30T16:30:59.613Z,2.77
2023-01-30T16:33:26.744Z,2.73
2023-01-30T16:35:53.651Z,2.66
2023-01-30T16:38:47.855Z,2.71
2023-01-30T16:41:39.517Z,2.65
2023-01-30T16:44:25.863Z,2.58
2023-01-30T16:46:55.550Z,2.57
2023-01-30T16:49:37.701Z,2.58
2023-01-30T16:52:37.105Z,2.58
2023-01-30T16:55:10.093Z,2.58
2023-01-30T16:57:43.404Z,2.43
2023-01-30T17:00:45.805Z,2.41
2023-01-30T17:03:31.172Z,2.50
2023-01-30T17:06:28.839Z,2.50
2023-01-30T17:08:58.783Z,2.60
2023-01-30T17:12:25.396Z,2.61
2023-01-30T17:18:13.139Z,2.60
2023-01-30T17:20:48.340Z,2.53
2023-01-30T17:23:20.789Z,2.44
2023-01-30T17:25:49.553Z,2.45
2023-01-30T17:28:21.501Z,2.51
2023-01-30T17:30:50.049Z,2.59
2023-01-30T17:33:17.182Z,2.60
2023-01-30T17:35:45.195Z,2.41
2023-01-30T17:38:12.758Z,2.40
2023-01-30T17:40:39.697Z,2.25
2023-01-30T17:43:06.573Z,2.32
2023-01-30T17:45:33.875Z,2.19
2023-01-30T17:48:00.909Z,2.34
2023-01-30T17:50:28.699Z,2.33
2023-01-30T17:52:55.685Z,2.38
2023-01-30T17:55:22.865Z,2.38
2023-01-30T17:57:49.928Z,2.24
2023-01-30T18:00:21.624Z,2.18
2023-01-30T18:02:49.339Z,2.22
2023-01-30T18:05:16.292Z,2.02
2023-01-30T18:07:43.929Z,1.85
2023-01-30T18:10:17.688Z,1.97
2023-01-30T18:12:48.380Z,1.87
2023-01-30T18:15:16.384Z,2.00
2023-01-30T18:17:47.415Z,1.80
2023-01-30T18:20:18.179Z,1.77
2023-01-30T18:22:46.135Z,1.75
2023-01-30T18:25:13.779Z,1.78
2023-01-30T18:27:44.267Z,1.77
2023-01-30T18:30:16.639Z,1.70
2023-01-30T18:32:52.584Z,1.63
2023-01-30T18:35:21.925Z,1.73
2023-01-30T18:37:49.951Z,1.81
2023-01-30T18:40:17.970Z,1.78
2023-01-30T18:42:45.231Z,1.63
2023-01-30T18:45:12.247Z,1.59
2023-01-30T18:47:39.184Z,1.69
2023-01-30T18:50:06.498Z,1.73
2023-01-30T18:52:33.477Z,1.81
2023-01-30T18:55:00.370Z,1.83
2023-01-30T18:57:27.281Z,1.92
2023-01-30T18:59:56.048Z,1.91
2023-01-30T19:02:23.040Z,1.81
2023-01-30T19:04:50.061Z,1.70
2023-01-30T19:07:17.358Z,1.69
2023-01-30T19:09:47.040Z,1.62
2023-01-30T19:12:35.296Z,1.59
2023-01-30T19:15:03.555Z,1.25
2023-01-30T19:17:31.365Z,1.18
2023-01-30T19:20:01.181Z,1.22
2023-01-30T19:22:30.726Z,1.28
2023-01-30T19:24:57.643Z,1.34
2023-01-30T19:27:25.986Z,1.22
2023-01-30T19:29:52.947Z,1.43
2023-01-30T19:32:19.847Z,1.45
2023-01-30T19:34:49.845Z,1.53
2023-01-30T19:37:16.842Z,1.54
2023-01-30T19:39:43.753Z,1.58
2023-01-30T19:42:10.709Z,1.56
2023-01-30T19:44:37.930Z,1.63
2023-01-30T19:47:04.859Z,1.64
2023-01-30T19:49:33.524Z,1.56
2023-01-30T19:52:03.016Z,1.43
2023-01-30T19:54:30.161Z,1.36
2023-01-30T19:56:59.846Z,1.29
2023-01-30T19:59:26.920Z,1.30
2023-01-30T20:01:53.799Z,1.32
2023-01-30T20:04:20.813Z,1.30
2023-01-30T20:06:49.833Z,1.19
2023-01-30T20:09:17.629Z,1.14
2023-01-30T20:11:44.751Z,1.27
2023-01-30T20:14:12.399Z,0.87
2023-01-30T20:16:39.993Z,1.06
2023-01-30T20:19:12.262Z,1.13
2023-01-30T20:21:39.243Z,1.18
2023-01-30T20:24:07.185Z,0.75
2023-01-30T20:26:40.145Z,0.83
2023-01-30T20:29:09.224Z,0.77
2023-01-30T20:31:38.927Z,0.86
2023-01-30T20:34:10.156Z,0.79
2023-01-30T20:36:37.645Z,0.81
2023-01-30T20:39:06.518Z,0.86
2023-01-30T20:41:37.287Z,0.91
2023-01-30T20:44:06.893Z,0.84
2023-01-30T20:46:41.149Z,0.79
2023-01-30T20:49:16.134Z,0.80
2023-01-30T20:51:43.486Z,0.77
2023-01-30T20:54:12.688Z,0.85
2023-01-30T20:56:43.150Z,0.83
2023-01-30T20:59:12.175Z,0.62
2023-01-30T21:01:39.528Z,0.71
2023-01-30T21:04:10.003Z,0.71
2023-01-30T21:06:44.768Z,0.74
2023-01-30T21:09:17.684Z,0.64
2023-01-30T21:11:44.892Z,0.57
2023-01-30T21:14:12.507Z,0.35
2023-01-30T21:16:39.732Z,0.49
2023-01-30T21:19:11.212Z,0.40
2023-01-30T21:21:50.534Z,0.44
2023-01-30T21:24:20.609Z,0.38
2023-01-30T21:26:48.142Z,0.42
2023-01-30T21:29:18.344Z,0.25
2023-01-30T21:31:46.314Z,0.29
2023-01-30T21:34:14.081Z,0.37
2023-01-30T21:36:41.236Z,0.28
2023-01-30T21:39:31.940Z,0.40
2023-01-30T21:42:17.514Z,0.55
2023-01-30T21:44:44.401Z,0.62
2023-01-30T21:47:11.327Z,0.73
2023-01-30T21:49:38.865Z,0.45
2023-01-30T21:52:05.798Z,0.63
2023-01-30T21:54:32.668Z,0.70
2023-01-30T21:56:59.607Z,0.66
2023-01-30T21:59:26.547Z,0.75
2023-01-30T22:01:53.524Z,0.77
2023-01-30T22:04:20.416Z,0.77
2023-01-30T22:06:47.383Z,0.83
2023-01-30T22:09:15.667Z,0.86
2023-01-30T22:11:43.211Z,0.82
2023-01-30T22:14:13.443Z,0.72
2023-01-30T22:16:41.327Z,0.74
2023-01-30T22:19:08.923Z,0.63
2023-01-30T22:21:38.880Z,0.75
2023-01-30T22:24:08.421Z,0.87
2023-01-30T22:26:36.520Z,0.82
2023-01-30T22:29:05.321Z,0.86
2023-01-30T22:31:37.422Z,1.03
2023-01-30T22:34:05.060Z,0.92
2023-01-30T22:36:34.843Z,1.08
2023-01-30T22:39:02.593Z,1.03
2023-01-30T22:41:32.511Z,1.04
2023-01-30T22:44:00.223Z,0.92
2023-01-30T22:46:31.467Z,0.94
2023-01-30T22:49:00.338Z,0.98
2023-01-30T22:51:29.918Z,1.01
2023-01-30T22:53:59.783Z,0.95
2023-01-30T22:56:34.004Z,0.95
2023-01-30T22:59:00.918Z,0.79
2023-01-30T23:01:33.057Z,0.79
2023-01-30T23:04:26.650Z,0.86
2023-01-30T23:06:56.608Z,0.59
2023-01-30T23:09:24.034Z,0.67
2023-01-30T23:12:13.487Z,0.75
2023-01-30T23:14:40.568Z,0.80
2023-01-30T23:17:26.975Z,0.86
2023-01-30T23:19:57.114Z,0.82
2023-01-30T23:22:24.310Z,0.85
2023-01-30T23:24:51.716Z,0.93
2023-01-30T23:27:19.732Z,0.93
2023-01-30T23:29:46.746Z,0.77
2023-01-30T23:32:14.927Z,0.80
2023-01-30T23:34:41.811Z,0.78
2023-01-30T23:37:08.750Z,0.88
2023-01-30T23:39:35.682Z,1.00
2023-01-30T23:42:02.916Z,1.06
2023-01-30T23:44:29.811Z,0.95
2023-01-30T23:46:56.874Z,0.71
2023-01-30T23:49:23.857Z,0.60
2023-01-30T23:51:50.712Z,0.60
2023-01-30T23:54:17.732Z,0.45
2023-01-30T23:56:45.360Z,0.64
2023-01-30T23:59:12.749Z,0.68
